sensor_id;sensor_type;location;lat;lon;timestamp;P1;durP1;ratioP1;P2;durP2;ratioP2
77051;SDS011;65980;44.898;8.602;2023-07-20T00:00:40;17.63;;;6.22;;
77051;SDS011;65980;44.898;8.602;2023-07-20T00:03:45;12.63;;;5.90;;
77051;SDS011;65980;44.898;8.602;2023-07-20T00:06:52;14.05;;;6.53;;
77051;SDS011;65980;44.898;8.602;2023-07-20T00:09:56;15.48;;;6.72;;
77051;SDS011;65980;44.898;8.602;2023-07-20T00:13:02;9.73;;;5.93;;
77051;SDS011;65980;44.898;8.602;2023-07-20T00:16:07;17.23;;;6.68;;
77051;SDS011;65980;44.898;8.602;2023-07-20T00:19:12;13.80;;;6.40;;
77051;SDS011;65980;44.898;8.602;2023-07-20T00:22:16;13.95;;;6.28;;
77051;SDS011;65980;44.898;8.602;2023-07-20T00:25:21;14.75;;;6.25;;
77051;SDS011;65980;44.898;8.602;2023-07-20T00:28:24;14.63;;;6.95;;
77051;SDS011;65980;44.898;8.602;2023-07-20T00:31:29;14.38;;;6.10;;
77051;SDS011;65980;44.898;8.602;2023-07-20T00:34:34;14.13;;;6.20;;
77051;SDS011;65980;44.898;8.602;2023-07-20T00:37:38;11.13;;;5.80;;
77051;SDS011;65980;44.898;8.602;2023-07-20T00:40:43;13.75;;;6.43;;
77051;SDS011;65980;44.898;8.602;2023-07-20T00:43:51;17.40;;;6.60;;
77051;SDS011;65980;44.898;8.602;2023-07-20T00:46:56;15.93;;;6.32;;
77051;SDS011;65980;44.898;8.602;2023-07-20T00:50:00;13.70;;;6.35;;
77051;SDS011;65980;44.898;8.602;2023-07-20T00:53:05;10.82;;;6.03;;
77051;SDS011;65980;44.898;8.602;2023-07-20T00:56:10;17.73;;;6.53;;
77051;SDS011;65980;44.898;8.602;2023-07-20T00:59:15;18.13;;;6.55;;
77051;SDS011;65980;44.898;8.602;2023-07-20T01:02:20;18.70;;;6.63;;
77051;SDS011;65980;44.898;8.602;2023-07-20T01:05:27;16.95;;;6.63;;
77051;SDS011;65980;44.898;8.602;2023-07-20T01:08:42;15.50;;;6.40;;
77051;SDS011;65980;44.898;8.602;2023-07-20T01:12:29;19.13;;;7.20;;
77051;SDS011;65980;44.898;8.602;2023-07-20T01:15:41;13.65;;;6.72;;
77051;SDS011;65980;44.898;8.602;2023-07-20T01:18:48;13.50;;;6.78;;
77051;SDS011;65980;44.898;8.602;2023-07-20T01:31:49;15.65;;;7.05;;
77051;SDS011;65980;44.898;8.602;2023-07-20T01:34:58;16.65;;;6.32;;
77051;SDS011;65980;44.898;8.602;2023-07-20T01:38:04;14.35;;;6.85;;
77051;SDS011;65980;44.898;8.602;2023-07-20T01:41:09;22.30;;;7.20;;
77051;SDS011;65980;44.898;8.602;2023-07-20T01:44:14;16.30;;;6.75;;
77051;SDS011;65980;44.898;8.602;2023-07-20T01:47:19;18.02;;;6.88;;
77051;SDS011;65980;44.898;8.602;2023-07-20T01:50:22;22.58;;;7.45;;
77051;SDS011;65980;44.898;8.602;2023-07-20T01:53:27;18.30;;;8.27;;
77051;SDS011;65980;44.898;8.602;2023-07-20T01:56:31;20.15;;;7.78;;
77051;SDS011;65980;44.898;8.602;2023-07-20T01:59:36;25.50;;;8.45;;
77051;SDS011;65980;44.898;8.602;2023-07-20T02:02:39;15.68;;;7.70;;
77051;SDS011;65980;44.898;8.602;2023-07-20T02:05:45;17.10;;;7.07;;
77051;SDS011;65980;44.898;8.602;2023-07-20T02:08:49;26.63;;;7.53;;
77051;SDS011;65980;44.898;8.602;2023-07-20T02:11:53;23.98;;;7.55;;
77051;SDS011;65980;44.898;8.602;2023-07-20T02:14:58;17.90;;;7.47;;
77051;SDS011;65980;44.898;8.602;2023-07-20T02:18:02;17.83;;;6.75;;
77051;SDS011;65980;44.898;8.602;2023-07-20T02:21:12;22.27;;;7.50;;
77051;SDS011;65980;44.898;8.602;2023-07-20T02:24:16;16.00;;;7.28;;
77051;SDS011;65980;44.898;8.602;2023-07-20T02:27:21;25.50;;;7.70;;
77051;SDS011;65980;44.898;8.602;2023-07-20T02:30:25;16.27;;;6.65;;
77051;SDS011;65980;44.898;8.602;2023-07-20T02:33:29;17.08;;;6.45;;
77051;SDS011;65980;44.898;8.602;2023-07-20T02:36:34;20.55;;;6.50;;
77051;SDS011;65980;44.898;8.602;2023-07-20T02:39:43;21.20;;;6.38;;
77051;SDS011;65980;44.898;8.602;2023-07-20T02:42:48;14.07;;;6.75;;
77051;SDS011;65980;44.898;8.602;2023-07-20T02:45:53;20.30;;;6.45;;
77051;SDS011;65980;44.898;8.602;2023-07-20T02:48:57;18.75;;;6.88;;
77051;SDS011;65980;44.898;8.602;2023-07-20T02:52:01;22.15;;;6.65;;
77051;SDS011;65980;44.898;8.602;2023-07-20T02:55:06;20.90;;;6.80;;
77051;SDS011;65980;44.898;8.602;2023-07-20T02:58:11;14.00;;;6.32;;
77051;SDS011;65980;44.898;8.602;2023-07-20T03:01:15;15.30;;;6.50;;
77051;SDS011;65980;44.898;8.602;2023-07-20T03:04:19;14.60;;;6.40;;
77051;SDS011;65980;44.898;8.602;2023-07-20T03:07:23;14.52;;;6.18;;
77051;SDS011;65980;44.898;8.602;2023-07-20T03:10:28;18.10;;;6.28;;
77051;SDS011;65980;44.898;8.602;2023-07-20T03:13:34;11.52;;;5.90;;
77051;SDS011;65980;44.898;8.602;2023-07-20T03:16:39;14.25;;;6.10;;
77051;SDS011;65980;44.898;8.602;2023-07-20T03:19:44;11.77;;;6.07;;
77051;SDS011;65980;44.898;8.602;2023-07-20T03:22:47;14.73;;;6.05;;
77051;SDS011;65980;44.898;8.602;2023-07-20T03:25:52;9.85;;;5.60;;
77051;SDS011;65980;44.898;8.602;2023-07-20T03:28:59;18.88;;;6.03;;
77051;SDS011;65980;44.898;8.602;2023-07-20T03:32:04;16.88;;;6.50;;
77051;SDS011;65980;44.898;8.602;2023-07-20T03:35:09;14.80;;;5.95;;
77051;SDS011;65980;44.898;8.602;2023-07-20T03:38:12;22.40;;;6.63;;
77051;SDS011;65980;44.898;8.602;2023-07-20T03:41:17;19.77;;;7.82;;
77051;SDS011;65980;44.898;8.602;2023-07-20T03:44:24;18.33;;;7.90;;
77051;SDS011;65980;44.898;8.602;2023-07-20T03:47:29;14.70;;;8.02;;
77051;SDS011;65980;44.898;8.602;2023-07-20T03:50:33;18.42;;;8.00;;
77051;SDS011;65980;44.898;8.602;2023-07-20T03:53:37;17.85;;;7.50;;
77051;SDS011;65980;44.898;8.602;2023-07-20T03:56:41;21.35;;;7.43;;
77051;SDS011;65980;44.898;8.602;2023-07-20T03:59:45;22.65;;;7.70;;
77051;SDS011;65980;44.898;8.602;2023-07-20T04:02:50;16.48;;;7.65;;
77051;SDS011;65980;44.898;8.602;2023-07-20T04:05:55;15.90;;;7.25;;
77051;SDS011;65980;44.898;8.602;2023-07-20T04:08:58;14.52;;;7.72;;
77051;SDS011;65980;44.898;8.602;2023-07-20T04:12:03;17.00;;;8.30;;
77051;SDS011;65980;44.898;8.602;2023-07-20T04:15:07;17.48;;;7.57;;
77051;SDS011;65980;44.898;8.602;2023-07-20T04:18:12;16.92;;;7.82;;
77051;SDS011;65980;44.898;8.602;2023-07-20T04:21:16;14.13;;;6.65;;
77051;SDS011;65980;44.898;8.602;2023-07-20T04:24:22;16.80;;;6.55;;
77051;SDS011;65980;44.898;8.602;2023-07-20T04:27:27;14.98;;;6.07;;
77051;SDS011;65980;44.898;8.602;2023-07-20T04:30:35;18.42;;;6.00;;
77051;SDS011;65980;44.898;8.602;2023-07-20T04:33:40;13.68;;;5.70;;
77051;SDS011;65980;44.898;8.602;2023-07-20T04:36:46;16.67;;;5.03;;
77051;SDS011;65980;44.898;8.602;2023-07-20T04:39:51;16.33;;;5.85;;
77051;SDS011;65980;44.898;8.602;2023-07-20T04:42:56;13.57;;;4.95;;
77051;SDS011;65980;44.898;8.602;2023-07-20T04:46:00;9.55;;;4.88;;
77051;SDS011;65980;44.898;8.602;2023-07-20T04:49:04;12.68;;;4.65;;
77051;SDS011;65980;44.898;8.602;2023-07-20T04:52:12;12.85;;;4.00;;
77051;SDS011;65980;44.898;8.602;2023-07-20T04:55:17;19.60;;;4.88;;
77051;SDS011;65980;44.898;8.602;2023-07-20T04:58:21;12.82;;;4.75;;
77051;SDS011;65980;44.898;8.602;2023-07-20T05:01:25;11.57;;;3.95;;
77051;SDS011;65980;44.898;8.602;2023-07-20T05:04:30;12.13;;;4.63;;
77051;SDS011;65980;44.898;8.602;2023-07-20T05:07:34;11.27;;;4.82;;
77051;SDS011;65980;44.898;8.602;2023-07-20T05:10:39;11.13;;;4.57;;
77051;SDS011;65980;44.898;8.602;2023-07-20T05:13:44;15.40;;;4.20;;
77051;SDS011;65980;44.898;8.602;2023-07-20T05:16:50;9.10;;;4.50;;
77051;SDS011;65980;44.898;8.602;2023-07-20T05:19:55;14.52;;;4.18;;
77051;SDS011;65980;44.898;8.602;2023-07-20T05:23:00;13.30;;;4.32;;
77051;SDS011;65980;44.898;8.602;2023-07-20T05:26:05;11.82;;;4.55;;
77051;SDS011;65980;44.898;8.602;2023-07-20T05:29:09;13.93;;;4.50;;
77051;SDS011;65980;44.898;8.602;2023-07-20T05:32:14;13.98;;;4.72;;
77051;SDS011;65980;44.898;8.602;2023-07-20T05:35:19;12.35;;;4.90;;
77051;SDS011;65980;44.898;8.602;2023-07-20T05:38:23;8.40;;;4.07;;
77051;SDS011;65980;44.898;8.602;2023-07-20T05:41:27;16.45;;;4.63;;
77051;SDS011;65980;44.898;8.602;2023-07-20T05:44:32;15.52;;;4.40;;
77051;SDS011;65980;44.898;8.602;2023-07-20T05:47:37;8.18;;;4.78;;
77051;SDS011;65980;44.898;8.602;2023-07-20T05:50:43;10.45;;;4.43;;
77051;SDS011;65980;44.898;8.602;2023-07-20T05:53:48;14.43;;;6.20;;
77051;SDS011;65980;44.898;8.602;2023-07-20T05:56:53;11.98;;;5.10;;
77051;SDS011;65980;44.898;8.602;2023-07-20T05:59:58;13.93;;;5.45;;
77051;SDS011;65980;44.898;8.602;2023-07-20T06:03:03;14.07;;;6.18;;
77051;SDS011;65980;44.898;8.602;2023-07-20T06:06:08;10.77;;;5.28;;
77051;SDS011;65980;44.898;8.602;2023-07-20T06:09:13;11.10;;;5.35;;
77051;SDS011;65980;44.898;8.602;2023-07-20T06:12:17;12.70;;;5.00;;
77051;SDS011;65980;44.898;8.602;2023-07-20T06:15:33;9.60;;;5.50;;
77051;SDS011;65980;44.898;8.602;2023-07-20T06:18:43;12.05;;;5.30;;
77051;SDS011;65980;44.898;8.602;2023-07-20T06:21:49;19.58;;;5.88;;
77051;SDS011;65980;44.898;8.602;2023-07-20T06:24:53;11.23;;;5.80;;
77051;SDS011;65980;44.898;8.602;2023-07-20T06:27:57;12.50;;;6.43;;
77051;SDS011;65980;44.898;8.602;2023-07-20T06:31:02;11.10;;;6.07;;
77051;SDS011;65980;44.898;8.602;2023-07-20T06:34:10;11.48;;;6.45;;
77051;SDS011;65980;44.898;8.602;2023-07-20T06:37:15;13.10;;;6.50;;
77051;SDS011;65980;44.898;8.602;2023-07-20T06:40:20;13.98;;;6.57;;
77051;SDS011;65980;44.898;8.602;2023-07-20T06:43:24;9.32;;;6.13;;
77051;SDS011;65980;44.898;8.602;2023-07-20T06:46:28;14.20;;;6.13;;
77051;SDS011;65980;44.898;8.602;2023-07-20T06:49:34;9.98;;;6.07;;
77051;SDS011;65980;44.898;8.602;2023-07-20T06:52:39;12.40;;;6.47;;
77051;SDS011;65980;44.898;8.602;2023-07-20T06:55:43;13.25;;;6.93;;
77051;SDS011;65980;44.898;8.602;2023-07-20T06:58:49;11.38;;;6.22;;
77051;SDS011;65980;44.898;8.602;2023-07-20T07:01:53;13.15;;;6.28;;
77051;SDS011;65980;44.898;8.602;2023-07-20T07:04:57;10.50;;;5.90;;
77051;SDS011;65980;44.898;8.602;2023-07-20T07:08:04;14.35;;;6.72;;
77051;SDS011;65980;44.898;8.602;2023-07-20T07:11:10;10.98;;;6.20;;
77051;SDS011;65980;44.898;8.602;2023-07-20T07:14:15;11.63;;;5.97;;
77051;SDS011;65980;44.898;8.602;2023-07-20T07:17:20;14.02;;;6.22;;
77051;SDS011;65980;44.898;8.602;2023-07-20T07:20:24;13.00;;;6.50;;
77051;SDS011;65980;44.898;8.602;2023-07-20T07:23:30;13.30;;;6.18;;
77051;SDS011;65980;44.898;8.602;2023-07-20T07:26:34;11.65;;;6.32;;
77051;SDS011;65980;44.898;8.602;2023-07-20T07:29:40;13.52;;;5.75;;
77051;SDS011;65980;44.898;8.602;2023-07-20T07:32:45;14.05;;;6.15;;
77051;SDS011;65980;44.898;8.602;2023-07-20T07:35:50;12.10;;;5.65;;
77051;SDS011;65980;44.898;8.602;2023-07-20T07:38:57;14.13;;;5.82;;
77051;SDS011;65980;44.898;8.602;2023-07-20T07:42:01;14.80;;;6.40;;
77051;SDS011;65980;44.898;8.602;2023-07-20T07:45:06;12.82;;;6.38;;
77051;SDS011;65980;44.898;8.602;2023-07-20T07:48:11;10.43;;;6.38;;
77051;SDS011;65980;44.898;8.602;2023-07-20T07:51:17;13.85;;;6.80;;
77051;SDS011;65980;44.898;8.602;2023-07-20T07:54:22;14.05;;;5.50;;
77051;SDS011;65980;44.898;8.602;2023-07-20T07:57:26;10.90;;;5.53;;
77051;SDS011;65980;44.898;8.602;2023-07-20T08:00:30;13.20;;;5.75;;
77051;SDS011;65980;44.898;8.602;2023-07-20T08:07:10;13.23;;;6.30;;
77051;SDS011;65980;44.898;8.602;2023-07-20T08:10:14;11.70;;;5.20;;
77051;SDS011;65980;44.898;8.602;2023-07-20T08:21:06;9.85;;;4.93;;
77051;SDS011;65980;44.898;8.602;2023-07-20T08:27:54;10.67;;;5.43;;
77051;SDS011;65980;44.898;8.602;2023-07-20T08:31:03;10.50;;;5.15;;
77051;SDS011;65980;44.898;8.602;2023-07-20T08:34:16;14.30;;;5.30;;
77051;SDS011;65980;44.898;8.602;2023-07-20T08:37:20;11.65;;;5.00;;
77051;SDS011;65980;44.898;8.602;2023-07-20T08:40:24;17.90;;;5.45;;
77051;SDS011;65980;44.898;8.602;2023-07-20T08:43:41;10.13;;;4.85;;
77051;SDS011;65980;44.898;8.602;2023-07-20T08:46:47;16.52;;;5.15;;
77051;SDS011;65980;44.898;8.602;2023-07-20T08:49:55;13.23;;;5.35;;
77051;SDS011;65980;44.898;8.602;2023-07-20T08:52:59;10.43;;;4.93;;
77051;SDS011;65980;44.898;8.602;2023-07-20T08:56:13;12.85;;;4.70;;
77051;SDS011;65980;44.898;8.602;2023-07-20T08:59:29;15.73;;;5.60;;
77051;SDS011;65980;44.898;8.602;2023-07-20T09:02:45;16.40;;;5.40;;
77051;SDS011;65980;44.898;8.602;2023-07-20T09:05:53;11.95;;;4.53;;
77051;SDS011;65980;44.898;8.602;2023-07-20T09:13:29;7.90;;;4.65;;
77051;SDS011;65980;44.898;8.602;2023-07-20T09:16:54;12.52;;;4.78;;
77051;SDS011;65980;44.898;8.602;2023-07-20T09:20:21;11.70;;;4.55;;
77051;SDS011;65980;44.898;8.602;2023-07-20T09:23:35;12.65;;;4.40;;
77051;SDS011;65980;44.898;8.602;2023-07-20T09:26:51;17.00;;;4.20;;
77051;SDS011;65980;44.898;8.602;2023-07-20T09:29:59;10.75;;;4.68;;
77051;SDS011;65980;44.898;8.602;2023-07-20T09:36:55;10.48;;;4.55;;
77051;SDS011;65980;44.898;8.602;2023-07-20T09:40:36;21.73;;;5.10;;
77051;SDS011;65980;44.898;8.602;2023-07-20T09:44:03;8.57;;;4.40;;
77051;SDS011;65980;44.898;8.602;2023-07-20T09:47:26;11.88;;;4.20;;
77051;SDS011;65980;44.898;8.602;2023-07-20T09:50:48;11.40;;;4.10;;
77051;SDS011;65980;44.898;8.602;2023-07-20T09:54:01;9.45;;;4.30;;
77051;SDS011;65980;44.898;8.602;2023-07-20T10:01:11;10.95;;;4.32;;
77051;SDS011;65980;44.898;8.602;2023-07-20T10:12:47;13.10;;;4.20;;
77051;SDS011;65980;44.898;8.602;2023-07-20T10:16:43;10.10;;;4.35;;
77051;SDS011;65980;44.898;8.602;2023-07-20T10:19:56;10.90;;;4.15;;
77051;SDS011;65980;44.898;8.602;2023-07-20T10:23:09;7.90;;;3.67;;
77051;SDS011;65980;44.898;8.602;2023-07-20T10:26:26;13.07;;;4.10;;
77051;SDS011;65980;44.898;8.602;2023-07-20T10:29:30;10.05;;;3.65;;
77051;SDS011;65980;44.898;8.602;2023-07-20T10:32:36;9.02;;;3.53;;
77051;SDS011;65980;44.898;8.602;2023-07-20T10:35:54;16.00;;;3.65;;
77051;SDS011;65980;44.898;8.602;2023-07-20T10:43:37;10.65;;;4.13;;
77051;SDS011;65980;44.898;8.602;2023-07-20T10:46:47;8.15;;;3.63;;
77051;SDS011;65980;44.898;8.602;2023-07-20T10:50:00;9.90;;;3.95;;
77051;SDS011;65980;44.898;8.602;2023-07-20T10:53:38;9.75;;;3.67;;
77051;SDS011;65980;44.898;8.602;2023-07-20T10:56:50;14.25;;;4.25;;
77051;SDS011;65980;44.898;8.602;2023-07-20T11:00:19;14.60;;;3.87;;
77051;SDS011;65980;44.898;8.602;2023-07-20T11:06:59;9.13;;;4.20;;
77051;SDS011;65980;44.898;8.602;2023-07-20T11:10:14;19.38;;;4.32;;
77051;SDS011;65980;44.898;8.602;2023-07-20T11:13:23;10.20;;;4.17;;
77051;SDS011;65980;44.898;8.602;2023-07-20T11:19:55;9.27;;;4.18;;
77051;SDS011;65980;44.898;8.602;2023-07-20T11:23:11;11.07;;;3.63;;
77051;SDS011;65980;44.898;8.602;2023-07-20T11:26:16;13.93;;;5.00;;
77051;SDS011;65980;44.898;8.602;2023-07-20T11:29:26;12.30;;;4.50;;
77051;SDS011;65980;44.898;8.602;2023-07-20T11:32:47;15.43;;;5.00;;
77051;SDS011;65980;44.898;8.602;2023-07-20T11:35:54;11.05;;;4.72;;
77051;SDS011;65980;44.898;8.602;2023-07-20T11:39:00;11.32;;;4.50;;
77051;SDS011;65980;44.898;8.602;2023-07-20T11:42:05;11.55;;;4.50;;
77051;SDS011;65980;44.898;8.602;2023-07-20T11:45:10;10.18;;;4.50;;
77051;SDS011;65980;44.898;8.602;2023-07-20T11:53:25;12.75;;;4.93;;
77051;SDS011;65980;44.898;8.602;2023-07-20T12:00:38;11.02;;;4.53;;
77051;SDS011;65980;44.898;8.602;2023-07-20T12:03:48;10.73;;;4.55;;
77051;SDS011;65980;44.898;8.602;2023-07-20T12:06:56;9.88;;;4.68;;
77051;SDS011;65980;44.898;8.602;2023-07-20T12:13:22;14.07;;;4.50;;
77051;SDS011;65980;44.898;8.602;2023-07-20T12:16:28;11.30;;;5.18;;
77051;SDS011;65980;44.898;8.602;2023-07-20T12:23:34;20.75;;;4.93;;
77051;SDS011;65980;44.898;8.602;2023-07-20T12:26:42;13.68;;;5.00;;
77051;SDS011;65980;44.898;8.602;2023-07-20T12:29:47;11.80;;;4.93;;
77051;SDS011;65980;44.898;8.602;2023-07-20T12:32:52;13.75;;;4.60;;
77051;SDS011;65980;44.898;8.602;2023-07-20T12:35:57;15.05;;;5.18;;
77051;SDS011;65980;44.898;8.602;2023-07-20T12:39:05;16.30;;;5.20;;
77051;SDS011;65980;44.898;8.602;2023-07-20T12:42:14;16.83;;;5.35;;
77051;SDS011;65980;44.898;8.602;2023-07-20T12:45:20;13.65;;;5.45;;
77051;SDS011;65980;44.898;8.602;2023-07-20T12:48:25;14.65;;;5.68;;
77051;SDS011;65980;44.898;8.602;2023-07-20T12:51:29;11.40;;;4.70;;
77051;SDS011;65980;44.898;8.602;2023-07-20T12:54:33;15.75;;;5.07;;
77051;SDS011;65980;44.898;8.602;2023-07-20T12:57:37;16.48;;;5.55;;
77051;SDS011;65980;44.898;8.602;2023-07-20T13:00:42;11.63;;;5.00;;
77051;SDS011;65980;44.898;8.602;2023-07-20T13:03:46;15.57;;;5.13;;
77051;SDS011;65980;44.898;8.602;2023-07-20T13:06:50;12.90;;;5.68;;
77051;SDS011;65980;44.898;8.602;2023-07-20T13:09:54;15.50;;;5.30;;
77051;SDS011;65980;44.898;8.602;2023-07-20T13:12:59;11.18;;;5.18;;
77051;SDS011;65980;44.898;8.602;2023-07-20T13:16:04;14.32;;;5.28;;
77051;SDS011;65980;44.898;8.602;2023-07-20T13:48:08;10.15;;;5.22;;
77051;SDS011;65980;44.898;8.602;2023-07-20T13:51:12;13.02;;;5.47;;
77051;SDS011;65980;44.898;8.602;2023-07-20T13:54:16;13.98;;;5.60;;
77051;SDS011;65980;44.898;8.602;2023-07-20T13:57:20;10.52;;;5.38;;
77051;SDS011;65980;44.898;8.602;2023-07-20T14:00:24;15.20;;;5.55;;
77051;SDS011;65980;44.898;8.602;2023-07-20T14:03:30;13.40;;;5.68;;
77051;SDS011;65980;44.898;8.602;2023-07-20T14:06:34;19.52;;;5.20;;
77051;SDS011;65980;44.898;8.602;2023-07-20T14:09:39;13.35;;;5.22;;
77051;SDS011;65980;44.898;8.602;2023-07-20T14:12:43;13.70;;;5.57;;
77051;SDS011;65980;44.898;8.602;2023-07-20T14:15:48;19.30;;;5.15;;
77051;SDS011;65980;44.898;8.602;2023-07-20T14:18:54;13.25;;;5.20;;
77051;SDS011;65980;44.898;8.602;2023-07-20T14:21:59;12.93;;;4.60;;
77051;SDS011;65980;44.898;8.602;2023-07-20T14:28:33;12.30;;;5.53;;
77051;SDS011;65980;44.898;8.602;2023-07-20T14:31:38;17.73;;;5.07;;
77051;SDS011;65980;44.898;8.602;2023-07-20T14:34:42;14.75;;;5.10;;
77051;SDS011;65980;44.898;8.602;2023-07-20T14:37:47;15.20;;;5.25;;
77051;SDS011;65980;44.898;8.602;2023-07-20T14:40:52;15.55;;;5.30;;
77051;SDS011;65980;44.898;8.602;2023-07-20T14:43:58;12.75;;;5.15;;
77051;SDS011;65980;44.898;8.602;2023-07-20T14:47:02;19.98;;;4.95;;
77051;SDS011;65980;44.898;8.602;2023-07-20T14:50:07;12.48;;;4.88;;
77051;SDS011;65980;44.898;8.602;2023-07-20T14:53:15;9.77;;;4.78;;
77051;SDS011;65980;44.898;8.602;2023-07-20T14:56:20;15.93;;;5.40;;
77051;SDS011;65980;44.898;8.602;2023-07-20T14:59:24;21.00;;;4.80;;
77051;SDS011;65980;44.898;8.602;2023-07-20T15:02:28;12.60;;;4.70;;
77051;SDS011;65980;44.898;8.602;2023-07-20T15:05:33;13.40;;;4.75;;
77051;SDS011;65980;44.898;8.602;2023-07-20T15:08:39;10.40;;;4.78;;
77051;SDS011;65980;44.898;8.602;2023-07-20T15:11:43;14.05;;;4.80;;
77051;SDS011;65980;44.898;8.602;2023-07-20T15:14:49;11.80;;;5.28;;
77051;SDS011;65980;44.898;8.602;2023-07-20T15:18:07;19.85;;;5.30;;
77051;SDS011;65980;44.898;8.602;2023-07-20T15:21:11;18.35;;;5.38;;
77051;SDS011;65980;44.898;8.602;2023-07-20T15:24:16;10.85;;;4.90;;
77051;SDS011;65980;44.898;8.602;2023-07-20T15:27:22;14.30;;;4.88;;
77051;SDS011;65980;44.898;8.602;2023-07-20T15:30:31;13.02;;;4.63;;
77051;SDS011;65980;44.898;8.602;2023-07-20T15:33:35;10.50;;;4.70;;
77051;SDS011;65980;44.898;8.602;2023-07-20T15:36:41;15.48;;;5.22;;
77051;SDS011;65980;44.898;8.602;2023-07-20T15:39:48;11.93;;;4.45;;
77051;SDS011;65980;44.898;8.602;2023-07-20T15:42:53;9.05;;;4.88;;
77051;SDS011;65980;44.898;8.602;2023-07-20T15:46:43;12.70;;;5.10;;
77051;SDS011;65980;44.898;8.602;2023-07-20T15:49:22;16.10;;;5.00;;
77051;SDS011;65980;44.898;8.602;2023-07-20T15:52:28;10.50;;;5.03;;
77051;SDS011;65980;44.898;8.602;2023-07-20T15:55:33;12.50;;;4.57;;
77051;SDS011;65980;44.898;8.602;2023-07-20T15:58:39;14.85;;;5.40;;
77051;SDS011;65980;44.898;8.602;2023-07-20T16:01:45;10.73;;;4.85;;
77051;SDS011;65980;44.898;8.602;2023-07-20T16:04:49;8.30;;;4.57;;
77051;SDS011;65980;44.898;8.602;2023-07-20T16:07:53;8.38;;;4.57;;
77051;SDS011;65980;44.898;8.602;2023-07-20T16:10:57;12.02;;;4.68;;
77051;SDS011;65980;44.898;8.602;2023-07-20T16:14:07;12.07;;;4.80;;
77051;SDS011;65980;44.898;8.602;2023-07-20T16:17:12;10.20;;;4.18;;
77051;SDS011;65980;44.898;8.602;2023-07-20T16:20:16;12.05;;;4.70;;
77051;SDS011;65980;44.898;8.602;2023-07-20T16:23:20;12.13;;;5.22;;
77051;SDS011;65980;44.898;8.602;2023-07-20T16:26:25;12.32;;;4.53;;
77051;SDS011;65980;44.898;8.602;2023-07-20T16:29:30;11.55;;;4.70;;
77051;SDS011;65980;44.898;8.602;2023-07-20T16:32:35;11.70;;;5.03;;
77051;SDS011;65980;44.898;8.602;2023-07-20T16:35:39;8.60;;;4.35;;
77051;SDS011;65980;44.898;8.602;2023-07-20T16:38:44;15.40;;;4.38;;
77051;SDS011;65980;44.898;8.602;2023-07-20T16:41:49;10.35;;;4.95;;
77051;SDS011;65980;44.898;8.602;2023-07-20T16:44:53;8.82;;;4.80;;
77051;SDS011;65980;44.898;8.602;2023-07-20T16:47:57;10.23;;;4.68;;
77051;SDS011;65980;44.898;8.602;2023-07-20T16:51:01;9.20;;;4.47;;
77051;SDS011;65980;44.898;8.602;2023-07-20T16:54:06;12.57;;;4.90;;
77051;SDS011;65980;44.898;8.602;2023-07-20T16:57:11;18.50;;;5.45;;
77051;SDS011;65980;44.898;8.602;2023-07-20T17:00:16;18.30;;;5.40;;
77051;SDS011;65980;44.898;8.602;2023-07-20T17:03:21;21.00;;;5.80;;
77051;SDS011;65980;44.898;8.602;2023-07-20T17:06:25;13.00;;;5.53;;
77051;SDS011;65980;44.898;8.602;2023-07-20T17:09:29;13.40;;;6.03;;
77051;SDS011;65980;44.898;8.602;2023-07-20T17:12:36;11.93;;;6.18;;
77051;SDS011;65980;44.898;8.602;2023-07-20T17:15:48;18.17;;;6.00;;
77051;SDS011;65980;44.898;8.602;2023-07-20T17:18:55;12.30;;;6.22;;
77051;SDS011;65980;44.898;8.602;2023-07-20T17:22:02;18.15;;;6.13;;
77051;SDS011;65980;44.898;8.602;2023-07-20T17:25:08;14.68;;;6.50;;
77051;SDS011;65980;44.898;8.602;2023-07-20T17:28:14;12.00;;;5.82;;
77051;SDS011;65980;44.898;8.602;2023-07-20T17:31:20;17.65;;;6.15;;
77051;SDS011;65980;44.898;8.602;2023-07-20T17:34:25;15.10;;;6.50;;
77051;SDS011;65980;44.898;8.602;2023-07-20T17:37:28;17.17;;;6.43;;
77051;SDS011;65980;44.898;8.602;2023-07-20T17:40:33;10.77;;;6.07;;
77051;SDS011;65980;44.898;8.602;2023-07-20T17:43:40;14.50;;;6.63;;
77051;SDS011;65980;44.898;8.602;2023-07-20T17:46:46;13.38;;;6.85;;
77051;SDS011;65980;44.898;8.602;2023-07-20T17:49:51;17.15;;;6.90;;
77051;SDS011;65980;44.898;8.602;2023-07-20T17:52:56;20.38;;;6.88;;
77051;SDS011;65980;44.898;8.602;2023-07-20T17:56:01;16.25;;;6.25;;
77051;SDS011;65980;44.898;8.602;2023-07-20T17:59:06;20.92;;;6.60;;
77051;SDS011;65980;44.898;8.602;2023-07-20T18:02:10;21.05;;;6.93;;
77051;SDS011;65980;44.898;8.602;2023-07-20T18:05:16;18.70;;;6.80;;
77051;SDS011;65980;44.898;8.602;2023-07-20T18:08:21;22.00;;;7.35;;
77051;SDS011;65980;44.898;8.602;2023-07-20T18:11:25;20.77;;;7.50;;
77051;SDS011;65980;44.898;8.602;2023-07-20T18:14:30;23.02;;;7.13;;
77051;SDS011;65980;44.898;8.602;2023-07-20T18:17:35;21.77;;;7.72;;
77051;SDS011;65980;44.898;8.602;2023-07-20T18:20:42;16.20;;;7.00;;
77051;SDS011;65980;44.898;8.602;2023-07-20T18:23:45;16.00;;;7.32;;
77051;SDS011;65980;44.898;8.602;2023-07-20T18:26:50;16.63;;;6.70;;
77051;SDS011;65980;44.898;8.602;2023-07-20T18:29:55;16.83;;;7.43;;
77051;SDS011;65980;44.898;8.602;2023-07-20T18:33:01;14.30;;;7.03;;
77051;SDS011;65980;44.898;8.602;2023-07-20T18:36:09;17.60;;;7.40;;
77051;SDS011;65980;44.898;8.602;2023-07-20T18:39:14;15.55;;;6.78;;
77051;SDS011;65980;44.898;8.602;2023-07-20T18:42:19;18.80;;;7.35;;
77051;SDS011;65980;44.898;8.602;2023-07-20T18:45:26;19.83;;;7.30;;
77051;SDS011;65980;44.898;8.602;2023-07-20T18:48:30;24.58;;;7.97;;
77051;SDS011;65980;44.898;8.602;2023-07-20T18:51:34;22.52;;;8.15;;
77051;SDS011;65980;44.898;8.602;2023-07-20T18:54:38;19.17;;;7.95;;
77051;SDS011;65980;44.898;8.602;2023-07-20T18:57:43;19.90;;;7.78;;
77051;SDS011;65980;44.898;8.602;2023-07-20T19:00:47;27.55;;;8.00;;
77051;SDS011;65980;44.898;8.602;2023-07-20T19:03:51;24.42;;;8.00;;
77051;SDS011;65980;44.898;8.602;2023-07-20T19:06:55;16.88;;;8.10;;
77051;SDS011;65980;44.898;8.602;2023-07-20T19:09:59;21.80;;;8.05;;
77051;SDS011;65980;44.898;8.602;2023-07-20T19:13:03;19.77;;;8.10;;
77051;SDS011;65980;44.898;8.602;2023-07-20T19:16:07;18.45;;;8.27;;
77051;SDS011;65980;44.898;8.602;2023-07-20T19:19:11;15.45;;;7.88;;
77051;SDS011;65980;44.898;8.602;2023-07-20T19:22:17;17.85;;;8.32;;
77051;SDS011;65980;44.898;8.602;2023-07-20T19:25:22;21.80;;;9.07;;
77051;SDS011;65980;44.898;8.602;2023-07-20T19:28:25;19.05;;;7.68;;
77051;SDS011;65980;44.898;8.602;2023-07-20T19:31:30;25.65;;;8.93;;
77051;SDS011;65980;44.898;8.602;2023-07-20T19:34:34;19.45;;;8.50;;
77051;SDS011;65980;44.898;8.602;2023-07-20T19:37:38;18.77;;;7.75;;
77051;SDS011;65980;44.898;8.602;2023-07-20T19:40:43;23.83;;;8.73;;
77051;SDS011;65980;44.898;8.602;2023-07-20T19:43:48;20.73;;;8.55;;
77051;SDS011;65980;44.898;8.602;2023-07-20T19:46:52;20.17;;;8.60;;
77051;SDS011;65980;44.898;8.602;2023-07-20T19:49:56;20.63;;;8.93;;
77051;SDS011;65980;44.898;8.602;2023-07-20T19:53:02;20.25;;;8.38;;
77051;SDS011;65980;44.898;8.602;2023-07-20T19:56:07;21.85;;;8.43;;
77051;SDS011;65980;44.898;8.602;2023-07-20T19:59:12;16.85;;;8.23;;
77051;SDS011;65980;44.898;8.602;2023-07-20T20:02:17;19.45;;;8.50;;
77051;SDS011;65980;44.898;8.602;2023-07-20T20:05:21;18.52;;;8.35;;
77051;SDS011;65980;44.898;8.602;2023-07-20T20:08:32;17.73;;;8.10;;
77051;SDS011;65980;44.898;8.602;2023-07-20T20:11:37;23.63;;;9.02;;
77051;SDS011;65980;44.898;8.602;2023-07-20T20:14:44;20.17;;;9.73;;